createdAt,value
2023-01-03T00:00:02.091Z,9.34
2023-01-03T00:01:01.705Z,9.34
2023-01-03T00:02:02.384Z,9.38
2023-01-03T00:03:02.826Z,9.39
2023-01-03T00:04:02.440Z,9.40
2023-01-03T00:05:02.299Z,9.45
2023-01-03T00:06:02.305Z,9.44
2023-01-03T00:07:02.424Z,9.44
2023-01-03T00:08:02.211Z,9.42
2023-01-03T00:09:01.956Z,9.44
2023-01-03T00:10:02.464Z,9.47
2023-01-03T00:11:02.039Z,9.43
2023-01-03T00:12:01.998Z,9.40
2023-01-03T00:13:02.427Z,9.36
2023-01-03T00:14:01.944Z,9.33
2023-01-03T00:15:02.383Z,9.34
2023-01-03T00:16:01.855Z,9.38
2023-01-03T00:17:02.975Z,9.37
2023-01-03T00:18:02.497Z,9.32
2023-01-03T00:19:02.763Z,9.25
2023-01-03T00:20:02.566Z,9.18
2023-01-03T00:21:02.632Z,9.22
2023-01-03T00:22:02.396Z,9.27
2023-01-03T00:23:02.565Z,9.27
2023-01-03T00:24:02.614Z,9.20
2023-01-03T00:25:03.050Z,9.18
2023-01-03T00:26:02.548Z,9.17
2023-01-03T00:27:02.290Z,9.19
2023-01-03T00:28:02.086Z,9.20
2023-01-03T00:29:02.600Z,9.18
2023-01-03T00:30:02.093Z,9.11
2023-01-03T00:31:02.561Z,9.00
2023-01-03T00:32:02.755Z,8.93
2023-01-03T00:33:02.528Z,8.87
2023-01-03T00:34:02.304Z,8.79
2023-01-03T00:35:05.271Z,8.78
2023-01-03T00:36:02.284Z,8.74
2023-01-03T00:37:02.641Z,8.67
2023-01-03T00:38:03.135Z,8.62
2023-01-03T00:39:02.941Z,8.67
2023-01-03T00:40:02.684Z,8.69
2023-01-03T00:41:03.159Z,8.67
2023-01-03T00:42:03.005Z,8.65
2023-01-03T00:43:02.634Z,8.61
2023-01-03T00:44:02.961Z,8.60
2023-01-03T00:45:02.633Z,8.58
2023-01-03T00:46:03.258Z,8.57
2023-01-03T00:47:03.238Z,8.56
2023-01-03T00:48:03.309Z,8.55
2023-01-03T00:49:03.254Z,8.55
2023-01-03T00:50:03.023Z,8.57
2023-01-03T00:51:02.770Z,8.59
2023-01-03T00:52:02.664Z,8.59
2023-01-03T00:53:02.636Z,8.59
2023-01-03T00:54:02.486Z,8.59
2023-01-03T00:55:02.587Z,8.60
2023-01-03T00:56:02.356Z,8.67
2023-01-03T00:57:03.221Z,8.75
2023-01-03T00:58:02.995Z,8.85
2023-01-03T00:59:02.767Z,8.92
2023-01-03T01:00:03.210Z,8.98
2023-01-03T01:01:03.140Z,9.03
2023-01-03T01:02:03.138Z,9.01
2023-01-03T01:03:03.115Z,8.97
2023-01-03T01:04:03.237Z,8.95
2023-01-03T01:05:02.986Z,8.94
2023-01-03T01:06:03.441Z,8.94
2023-01-03T01:07:02.693Z,8.91
2023-01-03T01:08:02.518Z,8.94
2023-01-03T01:09:02.732Z,8.98
2023-01-03T01:10:03.121Z,9.02
2023-01-03T01:11:02.841Z,9.05
2023-01-03T01:12:02.625Z,9.02
2023-01-03T01:13:02.609Z,9.07
2023-01-03T01:14:02.211Z,9.13
2023-01-03T01:15:02.584Z,9.15
2023-01-03T01:16:02.587Z,9.13
2023-01-03T01:17:02.419Z,9.14
2023-01-03T01:18:02.183Z,9.13
2023-01-03T01:19:02.627Z,9.14
2023-01-03T01:20:02.473Z,9.14
2023-01-03T01:21:02.784Z,9.08
2023-01-03T01:22:03.049Z,9.07
2023-01-03T01:23:02.891Z,9.07
2023-01-03T01:24:03.418Z,9.12
2023-01-03T01:25:02.921Z,9.11
2023-01-03T01:26:02.823Z,9.09
2023-01-03T01:27:02.225Z,9.09
2023-01-03T01:28:02.304Z,9.07
2023-01-03T01:29:02.329Z,9.13
2023-01-03T01:30:02.120Z,9.21
2023-01-03T01:31:02.227Z,9.18
2023-01-03T01:32:02.649Z,9.17
2023-01-03T01:33:02.423Z,9.16
2023-01-03T01:34:02.808Z,9.19
2023-01-03T01:35:02.546Z,9.21
2023-01-03T01:36:02.381Z,9.23
2023-01-03T01:37:02.931Z,9.22
2023-01-03T01:38:03.296Z,9.29
2023-01-03T01:39:02.665Z,9.34
2023-01-03T01:40:03.073Z,9.35
2023-01-03T01:41:02.859Z,9.38
2023-01-03T01:42:02.293Z,9.42
2023-01-03T01:43:02.096Z,9.48
2023-01-03T01:44:02.143Z,9.46
2023-01-03T01:45:02.508Z,9.42
2023-01-03T01:46:02.118Z,9.40
2023-01-03T01:47:02.890Z,9.37
2023-01-03T01:48:02.515Z,9.35
2023-01-03T01:49:02.495Z,9.31
2023-01-03T01:50:02.947Z,9.26
2023-01-03T01:51:02.393Z,9.24
2023-01-03T01:52:02.979Z,9.25
2023-01-03T01:53:02.760Z,9.25
2023-01-03T01:54:02.686Z,9.19
2023-01-03T01:55:03.094Z,9.15
2023-01-03T01:56:02.690Z,9.18
2023-01-03T01:57:03.002Z,9.15
2023-01-03T01:58:02.954Z,9.13
2023-01-03T01:59:02.814Z,9.10
2023-01-03T02:00:03.308Z,9.08
2023-01-03T02:01:03.160Z,9.07
2023-01-03T02:02:02.798Z,9.07
2023-01-03T02:03:02.880Z,9.07
2023-01-03T02:04:02.486Z,9.07
2023-01-03T02:05:02.924Z,9.07
2023-01-03T02:06:02.451Z,9.11
2023-01-03T02:07:02.997Z,9.10
2023-01-03T02:08:02.725Z,9.13
2023-01-03T02:09:02.511Z,9.16
2023-01-03T02:10:02.927Z,9.22
2023-01-03T02:11:02.626Z,9.26
2023-01-03T02:12:02.767Z,9.32
2023-01-03T02:13:02.827Z,9.39
2023-01-03T02:14:03.200Z,9.37
2023-01-03T02:15:03.196Z,9.39
2023-01-03T02:16:03.344Z,9.40
2023-01-03T02:17:02.772Z,9.38
2023-01-03T02:18:02.282Z,9.37
2023-01-03T02:19:02.948Z,9.36
2023-01-03T02:20:02.468Z,9.30
2023-01-03T02:21:02.902Z,9.28
2023-01-03T02:22:03.086Z,9.34
2023-01-03T02:23:02.828Z,9.35
2023-01-03T02:24:02.644Z,9.36
2023-01-03T02:25:03.125Z,9.38
2023-01-03T02:26:02.929Z,9.37
2023-01-03T02:27:03.392Z,9.40
2023-01-03T02:28:03.213Z,9.38
2023-01-03T02:29:02.946Z,9.38
2023-01-03T02:30:03.449Z,9.40
2023-01-03T02:31:03.220Z,9.39
2023-01-03T02:32:02.351Z,9.37
2023-01-03T02:33:02.788Z,9.33
2023-01-03T02:34:02.531Z,9.31
2023-01-03T02:35:02.293Z,9.32
2023-01-03T02:36:02.623Z,9.30
2023-01-03T02:37:02.732Z,9.27
2023-01-03T02:38:03.143Z,9.24
2023-01-03T02:39:02.742Z,9.28
2023-01-03T02:40:03.192Z,9.30
2023-01-03T02:41:02.620Z,9.32
2023-01-03T02:42:02.788Z,9.29
2023-01-03T02:43:02.371Z,9.29
2023-01-03T02:44:02.711Z,9.31
2023-01-03T02:45:02.423Z,9.36
2023-01-03T02:46:02.311Z,9.37
2023-01-03T02:47:03.409Z,9.33
2023-01-03T02:48:02.915Z,9.30
2023-01-03T02:49:03.312Z,9.28
2023-01-03T02:50:02.719Z,9.22
2023-01-03T02:51:03.153Z,9.15
2023-01-03T02:52:03.611Z,9.10
2023-01-03T02:53:03.177Z,9.14
2023-01-03T02:54:03.115Z,9.22
2023-01-03T02:55:03.625Z,9.28
2023-01-03T02:56:03.180Z,9.32
2023-01-03T02:57:03.215Z,9.36
2023-01-03T02:58:02.745Z,9.37
2023-01-03T02:59:03.238Z,9.39
2023-01-03T03:00:02.764Z,9.38
2023-01-03T03:01:03.022Z,9.31
2023-01-03T03:02:01.990Z,9.27
2023-01-03T03:03:01.909Z,9.25
2023-01-03T03:04:02.291Z,9.28
2023-01-03T03:05:02.107Z,9.35
2023-01-03T03:06:01.788Z,9.41
2023-01-03T03:07:02.624Z,9.43
2023-01-03T03:08:02.387Z,9.45
2023-01-03T03:09:02.834Z,9.44
2023-01-03T03:10:02.280Z,9.40
2023-01-03T03:11:02.373Z,9.36
2023-01-03T03:12:01.884Z,9.32
2023-01-03T03:13:02.360Z,9.29
2023-01-03T03:14:01.801Z,9.31
2023-01-03T03:15:02.342Z,9.37
2023-01-03T03:16:02.135Z,9.37
2023-01-03T03:17:02.824Z,9.39
2023-01-03T03:18:02.685Z,9.43
2023-01-03T03:19:02.425Z,9.45
2023-01-03T03:20:06.485Z,9.44
2023-01-03T03:21:02.957Z,9.44
2023-01-03T03:22:02.541Z,9.41
2023-01-03T03:23:02.439Z,9.37
2023-01-03T03:24:02.927Z,9.28
2023-01-03T03:25:02.600Z,9.24
2023-01-03T03:26:03.044Z,9.20
2023-01-03T03:27:01.680Z,9.17
2023-01-03T03:28:02.111Z,9.15
2023-01-03T03:29:01.631Z,9.17
2023-01-03T03:30:02.140Z,9.25
2023-01-03T03:31:01.622Z,9.29
2023-01-03T03:32:02.461Z,9.28
2023-01-03T03:33:02.116Z,9.24
2023-01-03T03:34:02.482Z,9.25
2023-01-03T03:35:02.086Z,9.26
2023-01-03T03:36:02.525Z,9.27
2023-01-03T03:37:01.859Z,9.33
2023-01-03T03:38:01.600Z,9.38
2023-01-03T03:39:02.024Z,9.42
2023-01-03T03:40:02.086Z,9.50
2023-01-03T03:41:01.595Z,9.51
2023-01-03T03:42:02.181Z,9.49
2023-01-03T03:43:01.952Z,9.44
2023-01-03T03:44:02.369Z,9.41
2023-01-03T03:45:02.590Z,9.35
2023-01-03T03:46:02.446Z,9.30
2023-01-03T03:47:05.680Z,9.28
2023-01-03T03:48:03.025Z,9.27
2023-01-03T03:49:02.531Z,9.28
2023-01-03T03:50:02.975Z,9.30
2023-01-03T03:51:02.820Z,9.29
2023-01-03T03:52:02.509Z,9.28
2023-01-03T03:53:02.355Z,9.32
2023-01-03T03:54:02.116Z,9.30
2023-01-03T03:55:02.561Z,9.29
2023-01-03T03:56:02.232Z,9.32
2023-01-03T03:57:01.761Z,9.33
2023-01-03T03:58:01.906Z,9.36
2023-01-03T03:59:01.905Z,9.39
2023-01-03T04:00:01.703Z,9.44
2023-01-03T04:01:01.492Z,9.48
2023-01-03T04:02:02.051Z,9.50
2023-01-03T04:03:02.139Z,9.52
2023-01-03T04:04:01.739Z,9.51
2023-01-03T04:05:01.561Z,9.47
2023-01-03T04:06:02.032Z,9.40
2023-01-03T04:07:02.441Z,9.36
2023-01-03T04:08:02.265Z,9.36
2023-01-03T04:09:02.779Z,9.37
2023-01-03T04:10:02.330Z,9.36
2023-01-03T04:11:02.293Z,9.37
2023-01-03T04:12:01.869Z,9.41
2023-01-03T04:13:02.149Z,9.47
2023-01-03T04:14:01.722Z,9.48
2023-01-03T04:15:02.142Z,9.50
2023-01-03T04:16:01.856Z,9.57
2023-01-03T04:17:01.806Z,9.54
2023-01-03T04:18:02.371Z,9.54
2023-01-03T04:19:01.945Z,9.51
2023-01-03T04:20:02.382Z,9.48
2023-01-03T04:21:01.840Z,9.47
2023-01-03T04:22:02.170Z,9.45
2023-01-03T04:23:02.457Z,9.44
2023-01-03T04:24:02.381Z,9.49
2023-01-03T04:25:02.525Z,9.55
2023-01-03T04:26:02.121Z,9.55
2023-01-03T04:27:02.579Z,9.54
2023-01-03T04:28:02.879Z,9.53
2023-01-03T04:29:02.362Z,9.52
2023-01-03T04:30:02.759Z,9.51
2023-01-03T04:31:02.237Z,9.53
2023-01-03T04:32:02.760Z,9.51
2023-01-03T04:33:02.335Z,9.45
2023-01-03T04:34:02.795Z,9.42
2023-01-03T04:35:02.532Z,9.40
2023-01-03T04:36:02.760Z,9.37
2023-01-03T04:37:02.346Z,9.43
2023-01-03T04:38:02.097Z,9.48
2023-01-03T04:39:02.541Z,9.52
2023-01-03T04:40:02.051Z,9.52
2023-01-03T04:41:02.478Z,9.54
2023-01-03T04:42:01.580Z,9.58
2023-01-03T04:43:01.980Z,9.63
2023-01-03T04:44:01.783Z,9.62
2023-01-03T04:45:01.706Z,9.59
2023-01-03T04:46:01.611Z,9.59
2023-01-03T04:47:02.031Z,9.57
2023-01-03T04:48:02.144Z,9.53
2023-01-03T04:49:01.944Z,9.54
2023-01-03T04:50:01.706Z,9.55
2023-01-03T04:51:02.065Z,9.52
2023-01-03T04:52:02.483Z,9.48
2023-01-03T04:53:02.238Z,9.43
2023-01-03T04:54:02.677Z,9.40
2023-01-03T04:55:02.179Z,9.43
2023-01-03T04:56:02.624Z,9.44
2023-01-03T04:57:02.206Z,9.42
2023-01-03T04:58:01.980Z,9.39
2023-01-03T04:59:01.733Z,9.36
2023-01-03T05:00:01.909Z,9.41
2023-01-03T05:01:01.989Z,9.51
2023-01-03T05:02:02.597Z,9.59
2023-01-03T05:03:02.216Z,9.56
2023-01-03T05:04:02.063Z,9.51
2023-01-03T05:05:01.889Z,9.49
2023-01-03T05:06:02.396Z,9.51
2023-01-03T05:07:02.583Z,9.52
2023-01-03T05:08:02.340Z,9.54
2023-01-03T05:09:02.124Z,9.51
2023-01-03T05:10:02.537Z,9.47
2023-01-03T05:11:02.579Z,9.44
2023-01-03T05:12:03.159Z,9.39
2023-01-03T05:13:02.918Z,9.40
2023-01-03T05:14:02.694Z,9.42
2023-01-03T05:15:02.859Z,9.41
2023-01-03T05:16:02.714Z,9.40
2023-01-03T05:17:02.436Z,9.38
2023-01-03T05:18:02.304Z,9.35
2023-01-03T05:19:01.889Z,9.32
2023-01-03T05:20:02.339Z,9.34
2023-01-03T05:21:01.827Z,9.35
2023-01-03T05:22:02.886Z,9.38
2023-01-03T05:23:02.547Z,9.40
2023-01-03T05:24:02.422Z,9.39
2023-01-03T05:25:02.315Z,9.42
2023-01-03T05:26:02.794Z,9.42
2023-01-03T05:27:01.606Z,9.36
2023-01-03T05:28:02.268Z,9.31
2023-01-03T05:29:01.795Z,9.31
2023-01-03T05:30:02.202Z,9.37
2023-01-03T05:31:01.628Z,9.42
2023-01-03T05:32:02.800Z,9.40
2023-01-03T05:33:02.263Z,9.41
2023-01-03T05:34:02.719Z,9.46
2023-01-03T05:35:02.198Z,9.49
2023-01-03T05:36:02.694Z,9.43
2023-01-03T05:37:03.098Z,9.41
2023-01-03T05:38:02.609Z,9.38
2023-01-03T05:39:03.089Z,9.38
2023-01-03T05:40:02.599Z,9.45
2023-01-03T05:41:02.986Z,9.48
2023-01-03T05:42:03.017Z,9.46
2023-01-03T05:43:02.883Z,9.40
2023-01-03T05:44:03.014Z,9.36
2023-01-03T05:45:02.814Z,9.42
2023-01-03T05:46:02.717Z,9.43
2023-01-03T05:47:01.940Z,9.44
2023-01-03T05:48:02.356Z,9.44
2023-01-03T05:49:02.061Z,9.42
2023-01-03T05:50:01.892Z,9.43
2023-01-03T05:51:02.416Z,9.41
2023-01-03T05:52:01.974Z,9.39
2023-01-03T05:53:02.403Z,9.35
2023-01-03T05:54:02.395Z,9.31
2023-01-03T05:55:02.200Z,9.28
2023-01-03T05:56:02.021Z,9.28
2023-01-03T05:57:02.787Z,9.27
2023-01-03T05:58:03.036Z,9.17
2023-01-03T05:59:02.975Z,9.12
2023-01-03T06:00:02.532Z,9.15
2023-01-03T06:01:02.633Z,9.14
2023-01-03T06:02:02.250Z,9.06
2023-01-03T06:03:02.256Z,9.01
2023-01-03T06:04:02.705Z,9.01
2023-01-03T06:05:02.396Z,9.04
2023-01-03T06:06:02.313Z,9.10
2023-01-03T06:07:02.605Z,9.18
2023-01-03T06:08:02.510Z,9.21
2023-01-03T06:09:02.305Z,9.23
2023-01-03T06:10:02.716Z,9.18
2023-01-03T06:11:02.314Z,9.19
2023-01-03T06:12:02.533Z,9.13
2023-01-03T06:13:02.563Z,9.10
2023-01-03T06:14:02.375Z,9.06
2023-01-03T06:15:02.849Z,8.97
2023-01-03T06:16:02.882Z,8.85
2023-01-03T06:17:02.105Z,8.75
2023-01-03T06:18:01.871Z,8.67
2023-01-03T06:19:01.990Z,8.64
2023-01-03T06:20:01.843Z,8.59
2023-01-03T06:21:02.038Z,8.61
2023-01-03T06:22:08.638Z,8.60
2023-01-03T06:23:02.738Z,8.54
2023-01-03T06:24:02.603Z,8.49
2023-01-03T06:25:02.387Z,8.46
2023-01-03T06:26:02.944Z,8.43
2023-01-03T06:27:02.919Z,8.48
2023-01-03T06:28:03.372Z,8.48
2023-01-03T06:29:02.927Z,8.46
2023-01-03T06:30:02.915Z,8.39
2023-01-03T06:31:02.824Z,8.38
2023-01-03T06:32:08.932Z,8.36
2023-01-03T06:33:02.620Z,8.28
2023-01-03T06:34:02.508Z,8.21
2023-01-03T06:35:03.057Z,8.16
2023-01-03T06:36:02.893Z,8.12
2023-01-03T06:37:02.732Z,8.10
2023-01-03T06:38:02.537Z,8.06
2023-01-03T06:39:02.995Z,8.04
2023-01-03T06:40:02.774Z,8.05
2023-01-03T06:41:02.701Z,8.00
2023-01-03T06:42:02.271Z,7.96
2023-01-03T06:43:02.512Z,7.93
2023-01-03T06:44:02.018Z,7.93
2023-01-03T06:45:02.563Z,7.87
2023-01-03T06:46:02.182Z,7.77
2023-01-03T06:47:02.553Z,7.67
2023-01-03T06:48:02.542Z,7.62
2023-01-03T06:49:02.597Z,7.62
2023-01-03T06:50:02.357Z,7.58
2023-01-03T06:51:02.762Z,7.60
2023-01-03T06:52:01.862Z,7.66
2023-01-03T06:53:02.415Z,7.68
2023-01-03T06:54:02.237Z,7.64
2023-01-03T06:55:02.469Z,7.63
2023-01-03T06:56:02.434Z,7.59
2023-01-03T06:57:02.722Z,7.59
2023-01-03T06:58:03.004Z,7.54
2023-01-03T06:59:02.690Z,7.55
2023-01-03T07:00:02.995Z,7.53
2023-01-03T07:01:03.110Z,7.51
2023-01-03T07:02:02.268Z,7.44
2023-01-03T07:03:08.898Z,7.43
2023-01-03T07:04:02.391Z,7.39
2023-01-03T07:05:01.960Z,7.38
2023-01-03T07:06:02.429Z,7.38
2023-01-03T07:07:02.481Z,7.31
2023-01-03T07:08:02.336Z,7.22
2023-01-03T07:09:02.337Z,7.19
2023-01-03T07:10:02.830Z,7.23
2023-01-03T07:11:02.486Z,7.30
2023-01-03T07:12:02.940Z,7.28
2023-01-03T07:13:02.665Z,7.20
2023-01-03T07:14:03.107Z,7.14
2023-01-03T07:15:02.622Z,7.12
2023-01-03T07:16:03.177Z,7.09
2023-01-03T07:17:02.390Z,7.05
2023-01-03T07:18:01.860Z,7.03
2023-01-03T07:19:02.405Z,7.15
2023-01-03T07:20:02.268Z,7.25
2023-01-03T07:21:02.350Z,7.27
2023-01-03T07:22:02.727Z,7.29
2023-01-03T07:23:02.692Z,7.31
2023-01-03T07:24:02.518Z,7.30
2023-01-03T07:25:02.708Z,7.31
2023-01-03T07:26:02.658Z,7.29
2023-01-03T07:27:02.330Z,7.32
2023-01-03T07:28:07.132Z,7.34
2023-01-03T07:29:01.901Z,7.34
2023-01-03T07:30:01.833Z,7.37
2023-01-03T07:31:02.229Z,7.39
2023-01-03T07:32:02.649Z,7.35
2023-01-03T07:33:02.512Z,7.33
2023-01-03T07:34:02.608Z,7.29
2023-01-03T07:35:02.616Z,7.24
2023-01-03T07:36:09.323Z,7.19
2023-01-03T07:37:03.171Z,7.16
2023-01-03T07:38:03.012Z,7.15
2023-01-03T07:39:02.894Z,7.14
2023-01-03T07:40:02.985Z,7.15
2023-01-03T07:41:02.865Z,7.18
2023-01-03T07:42:02.730Z,7.16
2023-01-03T07:43:02.385Z,7.14
2023-01-03T07:44:02.260Z,7.09
2023-01-03T07:45:02.703Z,7.05
2023-01-03T07:46:02.693Z,7.01
2023-01-03T07:47:02.413Z,6.93
2023-01-03T07:48:01.929Z,6.90
2023-01-03T07:49:05.163Z,6.95
2023-01-03T07:50:02.189Z,7.04
2023-01-03T07:51:02.150Z,7.10
2023-01-03T07:52:02.670Z,7.12
2023-01-03T07:53:02.423Z,7.13
2023-01-03T07:54:02.491Z,7.17
2023-01-03T07:55:02.375Z,7.18
2023-01-03T07:56:04.450Z,7.15
2023-01-03T07:57:02.869Z,7.10
2023-01-03T07:58:02.204Z,7.09
2023-01-03T07:59:02.818Z,7.10
2023-01-03T08:00:02.288Z,7.10
2023-01-03T08:01:02.506Z,7.10
2023-01-03T08:02:02.999Z,7.16
2023-01-03T08:03:02.769Z,7.20
2023-01-03T08:04:02.515Z,7.28
2023-01-03T08:05:02.473Z,7.25
2023-01-03T08:06:02.439Z,7.28
2023-01-03T08:07:02.882Z,7.36
2023-01-03T08:08:03.213Z,7.38
2023-01-03T08:09:06.201Z,7.40
2023-01-03T08:10:03.047Z,7.41
2023-01-03T08:11:03.230Z,7.45
2023-01-03T08:12:02.029Z,7.53
2023-01-03T08:13:02.563Z,7.57
2023-01-03T08:14:02.325Z,7.61
2023-01-03T08:15:02.109Z,7.63
2023-01-03T08:16:02.053Z,7.66
2023-01-03T08:17:02.935Z,7.67
2023-01-03T08:18:02.345Z,7.69
2023-01-03T08:19:02.917Z,7.68
2023-01-03T08:20:02.314Z,7.65
2023-01-03T08:21:02.594Z,7.64
2023-01-03T08:22:02.380Z,7.67
2023-01-03T08:23:02.697Z,7.67
2023-01-03T08:24:02.543Z,7.70
2023-01-03T08:25:02.751Z,7.75
2023-01-03T08:26:02.717Z,7.82
2023-01-03T08:27:02.739Z,7.87
2023-01-03T08:28:03.118Z,7.90
2023-01-03T08:29:03.167Z,7.93
2023-01-03T08:30:03.059Z,7.96
2023-01-03T08:31:03.134Z,7.98
2023-01-03T08:32:02.297Z,8.00
2023-01-03T08:33:02.781Z,7.99
2023-01-03T08:34:02.668Z,8.00
2023-01-03T08:35:02.595Z,8.02
2023-01-03T08:36:02.546Z,8.02
2023-01-03T08:37:02.674Z,8.01
2023-01-03T08:38:03.232Z,8.04
2023-01-03T08:39:02.901Z,8.05
2023-01-03T08:40:03.433Z,8.11
2023-01-03T08:41:02.867Z,8.12
2023-01-03T08:42:02.729Z,8.16
2023-01-03T08:43:02.901Z,8.19
2023-01-03T08:44:02.803Z,8.22
2023-01-03T08:45:02.769Z,8.25
2023-01-03T08:46:03.268Z,8.32
2023-01-03T08:47:02.965Z,8.36
2023-01-03T08:48:02.826Z,8.39
2023-01-03T08:49:02.814Z,8.44
2023-01-03T08:50:03.457Z,8.48
2023-01-03T08:51:03.042Z,8.50
2023-01-03T08:52:02.033Z,8.51
2023-01-03T08:53:02.468Z,8.52
2023-01-03T08:54:02.374Z,8.52
2023-01-03T08:55:02.434Z,8.51
2023-01-03T08:56:02.336Z,8.51
2023-01-03T08:57:02.595Z,8.53
2023-01-03T08:58:02.650Z,8.52
2023-01-03T08:59:02.612Z,8.51
2023-01-03T09:00:02.543Z,8.51
2023-01-03T09:01:02.236Z,8.54
2023-01-03T09:02:03.100Z,8.60
2023-01-03T09:03:03.354Z,8.64
2023-01-03T09:04:02.868Z,8.70
2023-01-03T09:05:02.992Z,8.73
2023-01-03T09:06:02.961Z,8.75
2023-01-03T09:07:03.208Z,8.74
2023-01-03T09:08:03.121Z,8.74
2023-01-03T09:09:03.339Z,8.76
2023-01-03T09:10:03.252Z,8.75
2023-01-03T09:11:03.151Z,8.75
2023-01-03T09:12:02.735Z,8.79
2023-01-03T09:13:02.996Z,8.85
2023-01-03T09:14:02.761Z,8.87
2023-01-03T09:15:02.544Z,8.92
2023-01-03T09:16:02.517Z,8.95
2023-01-03T09:17:02.773Z,9.00
2023-01-03T09:18:02.789Z,9.05
2023-01-03T09:19:02.798Z,9.05
2023-01-03T09:20:02.618Z,9.06
2023-01-03T09:21:02.584Z,9.06
2023-01-03T09:22:03.887Z,9.08
2023-01-03T09:23:03.493Z,9.12
2023-01-03T09:24:03.505Z,9.15
2023-01-03T09:25:03.427Z,9.15
2023-01-03T09:26:03.508Z,9.19
2023-01-03T09:27:02.501Z,9.22
2023-01-03T09:28:02.508Z,9.24
2023-01-03T09:29:02.548Z,9.28
2023-01-03T09:30:02.363Z,9.33
2023-01-03T09:31:02.361Z,9.38
2023-01-03T09:32:03.189Z,9.42
2023-01-03T09:33:03.216Z,9.44
2023-01-03T09:34:03.137Z,9.43
2023-01-03T09:35:03.090Z,9.44
2023-01-03T09:36:03.002Z,9.44
2023-01-03T09:37:02.514Z,9.47
2023-01-03T09:38:02.747Z,9.49
2023-01-03T09:39:02.654Z,9.54
2023-01-03T09:40:02.532Z,9.59
2023-01-03T09:41:02.660Z,9.62
2023-01-03T09:42:02.838Z,9.68
2023-01-03T09:43:02.928Z,9.76
2023-01-03T09:44:02.957Z,9.78
2023-01-03T09:45:03.062Z,9.82
2023-01-03T09:46:03.070Z,9.85
2023-01-03T09:47:03.426Z,9.91
2023-01-03T09:48:03.112Z,9.99
2023-01-03T09:49:03.182Z,10.06
2023-01-03T09:51:19.764Z,10.17
2023-01-03T09:52:03.364Z,10.19
2023-01-03T09:53:03.160Z,10.26
2023-01-03T09:54:03.501Z,10.36
2023-01-03T09:55:03.452Z,10.46
2023-01-03T09:56:03.440Z,10.56
2023-01-03T09:57:02.817Z,10.64
2023-01-03T09:58:02.952Z,10.74
2023-01-03T09:59:02.902Z,10.85
2023-01-03T10:00:02.967Z,10.93
2023-01-03T10:01:03.081Z,11.02
2023-01-03T10:02:02.513Z,11.11
2023-01-03T10:03:02.588Z,11.23
2023-01-03T10:04:02.505Z,11.29
2023-01-03T10:05:02.287Z,11.33
2023-01-03T10:06:02.299Z,11.44
2023-01-03T10:07:02.844Z,11.54
2023-01-03T10:08:02.981Z,11.61
2023-01-03T10:09:02.881Z,11.65
2023-01-03T10:10:02.486Z,11.69
2023-01-03T10:11:02.528Z,11.72
2023-01-03T10:12:02.233Z,11.77
2023-01-03T10:13:02.195Z,11.82
2023-01-03T10:14:02.534Z,11.84
2023-01-03T10:15:02.366Z,11.92
2023-01-03T10:16:02.389Z,11.96
2023-01-03T10:17:02.544Z,11.98
2023-01-03T10:18:02.601Z,11.97
2023-01-03T10:19:02.267Z,12.00
2023-01-03T10:20:02.503Z,12.06
2023-01-03T10:21:02.561Z,12.19
2023-01-03T10:22:02.943Z,12.31
2023-01-03T10:23:03.275Z,12.38
2023-01-03T10:24:03.136Z,12.44
2023-01-03T10:25:02.760Z,12.47
2023-01-03T10:26:02.907Z,12.46
2023-01-03T10:27:02.455Z,12.52
2023-01-03T10:28:02.202Z,12.56
2023-01-03T10:29:02.057Z,12.51
2023-01-03T10:30:02.521Z,12.46
2023-01-03T10:31:07.765Z,12.44
2023-01-03T10:32:02.740Z,12.44
2023-01-03T10:33:02.547Z,12.44
2023-01-03T10:34:02.486Z,12.42
2023-01-03T10:35:02.658Z,12.47
2023-01-03T10:36:02.427Z,12.46
2023-01-03T10:37:03.280Z,12.42
2023-01-03T10:38:03.062Z,12.43
2023-01-03T10:39:02.903Z,12.50
2023-01-03T10:40:03.196Z,12.52
2023-01-03T10:41:03.162Z,12.57
2023-01-03T10:42:02.775Z,12.62
2023-01-03T10:43:02.651Z,12.66
2023-01-03T10:44:02.710Z,12.63
2023-01-03T10:45:02.770Z,12.66
2023-01-03T10:46:02.575Z,12.67
2023-01-03T10:47:03.210Z,12.67
2023-01-03T10:48:02.882Z,12.66
2023-01-03T10:49:31.864Z,12.63
2023-01-03T10:50:02.961Z,12.70
2023-01-03T10:51:03.009Z,12.80
2023-01-03T10:52:02.782Z,12.79
2023-01-03T10:53:02.542Z,12.66
2023-01-03T10:54:02.564Z,12.59
2023-01-03T10:55:02.621Z,12.63
2023-01-03T10:56:02.509Z,12.67
2023-01-03T10:57:02.815Z,12.71
2023-01-03T10:58:02.348Z,12.66
2023-01-03T10:59:02.166Z,12.64
2023-01-03T11:00:02.858Z,12.68
2023-01-03T11:01:02.660Z,12.74
2023-01-03T11:02:01.994Z,12.71
2023-01-03T11:03:01.960Z,12.62
2023-01-03T11:04:02.122Z,12.54
2023-01-03T11:05:01.743Z,12.54
2023-01-03T11:06:01.907Z,12.60
2023-01-03T11:07:02.099Z,12.66
2023-01-03T11:08:02.427Z,12.75
2023-01-03T11:09:02.177Z,12.77
2023-01-03T11:10:02.668Z,12.75
2023-01-03T11:11:02.288Z,12.78
2023-01-03T11:12:02.491Z,12.82
2023-01-03T11:13:02.594Z,12.81
2023-01-03T11:14:02.601Z,12.82
2023-01-03T11:15:02.769Z,12.88
2023-01-03T11:16:02.954Z,12.82
2023-01-03T11:17:02.694Z,12.81
2023-01-03T11:18:02.648Z,12.83
2023-01-03T11:19:03.203Z,12.86
2023-01-03T11:20:02.940Z,12.92
2023-01-03T11:21:03.254Z,12.97
2023-01-03T11:22:02.943Z,12.95
2023-01-03T11:23:02.221Z,12.94
2023-01-03T11:24:02.214Z,12.85
2023-01-03T11:25:02.271Z,12.86
2023-01-03T11:26:02.333Z,12.94
2023-01-03T11:27:02.342Z,12.98
2023-01-03T11:28:02.713Z,13.05
2023-01-03T11:29:02.776Z,13.11
2023-01-03T11:30:02.784Z,13.15
2023-01-03T11:31:02.744Z,13.24
2023-01-03T11:32:02.770Z,13.31
2023-01-03T11:33:01.985Z,13.37
2023-01-03T11:34:02.076Z,13.47
2023-01-03T11:36:02.063Z,13.50
2023-01-03T11:37:02.073Z,13.56
2023-01-03T11:38:02.821Z,13.59
2023-01-03T11:39:02.770Z,13.46
2023-01-03T11:40:03.161Z,13.38
2023-01-03T11:41:02.883Z,13.37
2023-01-03T11:42:02.497Z,13.28
2023-01-03T11:43:01.965Z,13.27
2023-01-03T11:44:02.519Z,13.24
2023-01-03T11:45:02.231Z,13.21
2023-01-03T11:46:02.404Z,13.14
2023-01-03T11:47:02.475Z,13.15
2023-01-03T11:48:03.001Z,13.17
2023-01-03T11:49:02.838Z,13.16
2023-01-03T11:50:02.835Z,13.15
2023-01-03T11:51:02.847Z,13.18
2023-01-03T11:52:03.180Z,13.19
2023-01-03T11:53:02.552Z,13.20
2023-01-03T11:54:02.866Z,13.11
2023-01-03T11:55:02.553Z,12.99
2023-01-03T11:56:02.512Z,12.93
2023-01-03T11:57:02.493Z,12.86
2023-01-03T11:58:01.879Z,12.79
2023-01-03T11:59:01.775Z,12.75
2023-01-03T12:00:01.909Z,12.71
2023-01-03T12:01:02.023Z,12.71
2023-01-03T12:02:02.126Z,12.69
2023-01-03T12:03:02.979Z,12.57
2023-01-03T12:04:02.892Z,12.43
2023-01-03T12:05:02.444Z,12.40
2023-01-03T12:06:02.683Z,12.38
2023-01-03T12:07:29.058Z,12.42
2023-01-03T12:08:02.310Z,12.48
2023-01-03T12:09:02.218Z,12.55
2023-01-03T12:10:02.206Z,12.58
2023-01-03T12:11:02.036Z,12.55
2023-01-03T12:12:02.398Z,12.59
2023-01-03T12:13:02.507Z,12.68
2023-01-03T12:14:02.507Z,12.77
2023-01-03T12:15:02.710Z,12.82
2023-01-03T12:16:02.580Z,12.90
2023-01-03T12:17:02.416Z,12.99
2023-01-03T12:18:01.709Z,13.08
2023-01-03T12:19:04.494Z,13.16
2023-01-03T12:20:01.706Z,13.19
2023-01-03T12:21:01.745Z,13.24
2023-01-03T12:22:02.315Z,13.25
2023-01-03T12:23:02.676Z,13.24
2023-01-03T12:24:02.738Z,13.21
2023-01-03T12:25:05.646Z,13.14
2023-01-03T12:26:02.740Z,13.12
2023-01-03T12:27:02.662Z,13.18
2023-01-03T12:28:02.031Z,13.18
2023-01-03T12:29:01.910Z,13.23
2023-01-03T12:30:02.023Z,13.26
2023-01-03T12:31:01.910Z,13.31
2023-01-03T12:32:02.005Z,13.45
2023-01-03T12:33:02.038Z,13.56
2023-01-03T12:34:02.001Z,13.63
2023-01-03T12:35:02.045Z,13.70
2023-01-03T12:36:02.104Z,13.72
2023-01-03T12:37:02.390Z,13.74
2023-01-03T12:38:02.934Z,13.78
2023-01-03T12:39:02.931Z,13.85
2023-01-03T12:40:02.962Z,13.86
2023-01-03T12:41:02.763Z,13.88
2023-01-03T12:42:03.115Z,13.88
2023-01-03T12:43:02.013Z,13.93
2023-01-03T12:44:01.988Z,14.00
2023-01-03T12:45:02.006Z,14.03
2023-01-03T12:46:06.940Z,13.99
2023-01-03T12:47:02.044Z,13.97
2023-01-03T12:48:02.770Z,13.99
2023-01-03T12:49:02.090Z,14.04
2023-01-03T12:50:02.202Z,14.11
2023-01-03T12:51:02.159Z,14.15
2023-01-03T12:52:02.486Z,14.20
2023-01-03T12:53:03.148Z,14.29
2023-01-03T12:54:02.546Z,14.35
2023-01-03T12:55:02.516Z,14.39
2023-01-03T12:56:03.022Z,14.33
2023-01-03T12:57:03.139Z,14.31
2023-01-03T12:58:02.556Z,14.33
2023-01-03T12:59:02.098Z,14.31
2023-01-03T13:00:01.919Z,14.41
2023-01-03T13:01:01.951Z,14.48
2023-01-03T13:02:02.722Z,14.54
2023-01-03T13:03:02.895Z,14.53
2023-01-03T13:04:02.401Z,14.47
2023-01-03T13:05:02.238Z,14.47
2023-01-03T13:06:02.291Z,14.52
2023-01-03T13:07:02.251Z,14.50
2023-01-03T13:08:02.797Z,14.50
2023-01-03T13:09:02.662Z,14.56
2023-01-03T13:10:02.242Z,14.65
2023-01-03T13:11:02.684Z,14.64
2023-01-03T13:12:02.241Z,14.65
2023-01-03T13:13:02.738Z,14.71